createdAt,value
2022-10-29T00:01:40.800Z,15.24
2022-10-29T00:04:09.241Z,15.27
2022-10-29T00:06:37.008Z,15.27
2022-10-29T00:09:05.599Z,15.20
2022-10-29T00:11:33.364Z,15.26
2022-10-29T00:14:02.335Z,15.22
2022-10-29T00:16:36.044Z,15.24
2022-10-29T00:19:05.654Z,15.27
2022-10-29T00:21:34.403Z,15.27
2022-10-29T00:24:02.401Z,15.22
2022-10-29T00:26:31.050Z,15.24
2022-10-29T00:28:58.883Z,15.21
2022-10-29T00:31:26.719Z,15.18
2022-10-29T00:33:56.136Z,15.22
2022-10-29T00:36:28.172Z,15.17
2022-10-29T00:38:57.002Z,15.24
2022-10-29T00:41:27.375Z,15.21
2022-10-29T00:44:38.514Z,15.21
2022-10-29T00:47:18.728Z,15.23
2022-10-29T00:49:49.011Z,15.24
2022-10-29T00:52:20.454Z,15.26
2022-10-29T00:54:50.355Z,15.19
2022-10-29T00:57:23.502Z,15.14
2022-10-29T00:59:51.314Z,15.21
2022-10-29T01:02:19.375Z,15.22
2022-10-29T01:04:47.384Z,15.19
2022-10-29T01:07:15.440Z,15.08
2022-10-29T01:09:44.902Z,15.02
2022-10-29T01:12:40.333Z,15.04
2022-10-29T01:15:21.508Z,14.96
2022-10-29T01:18:05.490Z,14.94
2022-10-29T01:21:24.172Z,14.92
2022-10-29T01:24:31.598Z,14.84
2022-10-29T01:27:23.519Z,14.69
2022-10-29T01:30:04.095Z,14.64
2022-10-29T01:32:42.906Z,14.65
2022-10-29T01:35:16.085Z,14.62
2022-10-29T01:37:55.161Z,14.58
2022-10-29T01:40:27.688Z,14.58
2022-10-29T01:43:05.109Z,14.66
2022-10-29T01:45:37.368Z,14.57
2022-10-29T01:48:11.403Z,14.46
2022-10-29T01:50:43.485Z,14.52
2022-10-29T01:53:12.066Z,14.45
2022-10-29T01:55:39.792Z,14.37
2022-10-29T01:58:08.498Z,14.30
2022-10-29T02:00:43.494Z,14.31
2022-10-29T02:03:26.415Z,14.31
2022-10-29T02:06:01.388Z,14.29
2022-10-29T02:08:36.797Z,14.30
2022-10-29T02:11:11.169Z,14.31
2022-10-29T02:13:45.782Z,14.31
2022-10-29T02:16:15.242Z,14.33
2022-10-29T02:18:46.829Z,14.29
2022-10-29T02:21:16.419Z,14.24
2022-10-29T02:23:44.394Z,14.25
2022-10-29T02:26:12.176Z,14.23
2022-10-29T02:28:40.049Z,14.24
2022-10-29T02:31:07.750Z,14.25
2022-10-29T02:33:35.642Z,14.22
2022-10-29T02:36:05.367Z,14.22
2022-10-29T02:38:33.050Z,14.19
2022-10-29T02:41:00.783Z,14.15
2022-10-29T02:43:28.591Z,14.13
2022-10-29T02:46:13.468Z,14.11
2022-10-29T02:48:41.169Z,14.08
2022-10-29T02:51:10.252Z,14.02
2022-10-29T02:53:38.493Z,13.98
2022-10-29T02:56:07.940Z,13.92
2022-10-29T02:58:36.050Z,13.90
2022-10-29T03:01:04.245Z,13.90
2022-10-29T03:03:32.425Z,13.90
2022-10-29T03:06:00.317Z,13.91
2022-10-29T03:08:29.406Z,13.91
2022-10-29T03:10:57.202Z,13.97
2022-10-29T03:13:25.082Z,14.01
2022-10-29T03:15:52.829Z,14.07
2022-10-29T03:18:20.549Z,14.05
2022-10-29T03:20:48.526Z,14.00
2022-10-29T03:23:16.277Z,14.01
2022-10-29T03:25:45.688Z,14.00
2022-10-29T03:28:13.347Z,13.99
2022-10-29T03:30:41.101Z,13.99
2022-10-29T03:33:08.800Z,14.04
2022-10-29T03:35:36.574Z,14.05
2022-10-29T03:38:04.324Z,14.02
2022-10-29T03:40:32.133Z,14.00
2022-10-29T03:43:01.246Z,13.95
2022-10-29T03:45:28.944Z,13.91
2022-10-29T03:47:57.575Z,13.89
2022-10-29T03:50:25.703Z,13.90
2022-10-29T03:52:53.419Z,13.89
2022-10-29T03:55:21.153Z,13.89
2022-10-29T03:57:48.814Z,13.91
2022-10-29T04:00:18.431Z,13.89
2022-10-29T04:02:46.266Z,13.90
2022-10-29T04:05:14.091Z,13.91
2022-10-29T04:07:41.788Z,13.89
2022-10-29T04:10:10.264Z,13.95
2022-10-29T04:12:37.951Z,13.97
2022-10-29T04:15:06.815Z,13.99
2022-10-29T04:17:35.944Z,14.00
2022-10-29T04:20:07.003Z,13.97
2022-10-29T04:28:42.358Z,13.82
2022-10-29T04:31:06.517Z,13.85
2022-10-29T04:33:35.534Z,13.81
2022-10-29T04:36:03.914Z,13.82
2022-10-29T04:38:31.555Z,13.85
2022-10-29T04:41:00.313Z,13.88
2022-10-29T04:43:28.874Z,13.96
2022-10-29T04:45:57.905Z,14.02
2022-10-29T04:48:26.982Z,14.05
2022-10-29T04:50:56.641Z,14.00
2022-10-29T04:53:24.397Z,14.02
2022-10-29T04:55:52.276Z,14.01
2022-10-29T04:58:21.478Z,14.07
2022-10-29T05:00:49.196Z,14.01
2022-10-29T05:03:16.985Z,13.99
2022-10-29T05:05:44.763Z,13.94
2022-10-29T05:08:15.284Z,13.83
2022-10-29T05:10:43.058Z,13.77
2022-10-29T05:13:13.123Z,13.74
2022-10-29T05:15:41.680Z,13.74
2022-10-29T05:18:10.791Z,13.74
2022-10-29T05:20:38.519Z,13.77
2022-10-29T05:23:07.873Z,13.73
2022-10-29T05:25:39.018Z,13.72
2022-10-29T05:28:10.827Z,13.72
2022-10-29T05:30:39.971Z,13.73
2022-10-29T05:33:08.117Z,13.75
2022-10-29T05:35:36.459Z,13.74
2022-10-29T05:38:05.486Z,13.79
2022-10-29T05:40:33.708Z,13.84
2022-10-29T05:43:02.808Z,13.89
2022-10-29T05:45:30.575Z,13.92
2022-10-29T05:47:59.137Z,13.89
2022-10-29T05:50:27.522Z,13.90
2022-10-29T05:52:59.158Z,13.91
2022-10-29T05:55:27.850Z,13.93
2022-10-29T05:57:57.290Z,13.94
2022-10-29T06:00:27.695Z,13.97
2022-10-29T06:02:56.117Z,13.98
2022-10-29T06:05:24.156Z,14.04
2022-10-29T06:07:55.520Z,14.05
2022-10-29T06:10:24.099Z,14.08
2022-10-29T06:12:51.874Z,14.10
2022-10-29T06:15:20.261Z,14.14
2022-10-29T06:17:49.606Z,14.19
2022-10-29T06:20:20.806Z,14.18
2022-10-29T06:22:48.646Z,14.20
2022-10-29T06:25:16.519Z,14.27
2022-10-29T06:27:44.223Z,14.26
2022-10-29T06:30:13.197Z,14.28
2022-10-29T06:32:40.889Z,14.31
2022-10-29T06:35:11.221Z,14.33
2022-10-29T06:37:39.149Z,14.36
2022-10-29T06:40:07.932Z,14.36
2022-10-29T06:42:35.685Z,14.37
2022-10-29T06:45:03.425Z,14.38
2022-10-29T06:47:31.125Z,14.41
2022-10-29T06:49:58.839Z,14.41
2022-10-29T06:52:27.905Z,14.47
2022-10-29T06:54:55.551Z,14.46
2022-10-29T06:57:24.804Z,14.47
2022-10-29T06:59:52.584Z,14.46
2022-10-29T07:02:21.744Z,14.51
2022-10-29T07:04:49.486Z,14.52
2022-10-29T07:07:17.949Z,14.58
2022-10-29T07:09:47.094Z,14.61
2022-10-29T07:12:14.828Z,14.63
2022-10-29T07:14:42.515Z,14.63
2022-10-29T07:17:10.295Z,14.66
2022-10-29T07:19:37.970Z,14.70
2022-10-29T07:22:06.146Z,14.76
2022-10-29T07:24:33.836Z,14.83
2022-10-29T07:27:03.813Z,14.87
2022-10-29T07:29:31.572Z,14.93
2022-10-29T07:31:59.232Z,14.95
2022-10-29T07:34:26.954Z,15.02
2022-10-29T07:36:54.652Z,15.08
2022-10-29T07:39:22.658Z,15.20
2022-10-29T07:41:51.431Z,15.23
2022-10-29T07:44:22.128Z,15.31
2022-10-29T07:46:49.790Z,15.40
2022-10-29T07:49:17.494Z,15.48
2022-10-29T07:51:45.236Z,15.51
2022-10-29T07:54:14.892Z,15.53
2022-10-29T07:56:45.192Z,15.63
2022-10-29T07:59:15.704Z,15.73
2022-10-29T08:01:44.806Z,15.79
2022-10-29T08:04:13.375Z,15.68
2022-10-29T08:06:41.144Z,15.65
2022-10-29T08:09:08.972Z,15.70
2022-10-29T08:11:37.074Z,15.86
2022-10-29T08:14:05.151Z,15.94
2022-10-29T08:16:32.935Z,16.00
2022-10-29T08:19:02.290Z,16.00
2022-10-29T08:21:30.163Z,16.06
2022-10-29T08:23:58.287Z,16.05
2022-10-29T08:26:26.039Z,16.10
2022-10-29T08:28:53.713Z,16.16
2022-10-29T08:31:21.585Z,16.22
2022-10-29T08:33:49.739Z,16.18
2022-10-29T08:36:18.848Z,16.24
2022-10-29T08:38:47.759Z,16.23
2022-10-29T08:41:37.297Z,16.29
2022-10-29T08:44:20.631Z,16.37
2022-10-29T08:46:51.723Z,16.43
2022-10-29T08:49:22.343Z,16.60
2022-10-29T08:51:57.853Z,16.67
2022-10-29T08:54:31.460Z,16.68
2022-10-29T08:57:03.590Z,16.73
2022-10-29T08:59:36.733Z,16.71
2022-10-29T09:02:04.814Z,16.75
2022-10-29T09:04:35.806Z,16.90
2022-10-29T09:07:21.020Z,17.05
2022-10-29T09:09:58.691Z,17.35
2022-10-29T09:12:42.024Z,17.38
2022-10-29T09:15:28.735Z,17.22
2022-10-29T09:18:12.575Z,17.12
2022-10-29T09:20:52.330Z,17.17
2022-10-29T09:23:31.466Z,17.46
2022-10-29T09:26:03.890Z,17.89
2022-10-29T09:28:44.851Z,18.04
2022-10-29T09:31:22.002Z,17.79
2022-10-29T09:33:55.332Z,17.82
2022-10-29T09:36:26.149Z,17.89
2022-10-29T09:38:58.663Z,18.00
2022-10-29T09:41:31.428Z,17.92
2022-10-29T09:44:03.785Z,18.14
2022-10-29T09:46:40.499Z,18.23
2022-10-29T09:49:24.323Z,18.19
2022-10-29T09:51:56.977Z,18.31
2022-10-29T09:54:28.646Z,18.45
2022-10-29T09:56:58.036Z,18.44
2022-10-29T09:59:32.807Z,18.31
2022-10-29T10:02:01.037Z,18.41
2022-10-29T10:04:31.870Z,18.55
2022-10-29T10:07:08.922Z,18.78
2022-10-29T10:09:55.605Z,18.84
2022-10-29T10:12:25.590Z,18.98
2022-10-29T10:15:03.988Z,19.02
2022-10-29T10:18:01.232Z,19.09
2022-10-29T10:20:32.962Z,18.98
2022-10-29T10:23:01.033Z,19.00
2022-10-29T10:25:40.884Z,19.22
2022-10-29T10:28:20.376Z,19.34
2022-10-29T10:31:07.795Z,19.48
2022-10-29T10:33:37.596Z,19.71
2022-10-29T10:36:10.205Z,19.89
2022-10-29T10:38:44.531Z,19.92
2022-10-29T10:41:15.795Z,19.54
2022-10-29T10:43:46.043Z,19.81
2022-10-29T10:46:20.567Z,19.80
2022-10-29T10:48:58.839Z,19.70
2022-10-29T10:51:30.607Z,19.68
2022-10-29T10:53:59.642Z,19.81
2022-10-29T10:56:28.719Z,19.91
2022-10-29T10:59:04.445Z,19.88
2022-10-29T11:01:37.391Z,19.97
2022-10-29T11:04:15.743Z,19.91
2022-10-29T11:06:47.688Z,19.72
2022-10-29T11:09:21.958Z,19.73
2022-10-29T11:11:59.263Z,19.76
2022-10-29T11:14:32.596Z,19.64
2022-10-29T11:17:02.882Z,19.64
2022-10-29T11:19:38.161Z,19.71
2022-10-29T11:22:16.622Z,19.80
2022-10-29T11:24:52.112Z,19.76
2022-10-29T11:27:29.570Z,19.92
2022-10-29T11:30:04.250Z,20.13
2022-10-29T11:32:42.712Z,20.25
2022-10-29T11:35:14.237Z,20.47
2022-10-29T11:37:51.092Z,20.78
2022-10-29T11:40:23.803Z,20.79
2022-10-29T11:42:53.145Z,20.77
2022-10-29T11:45:28.654Z,20.73
2022-10-29T11:48:08.336Z,20.88
2022-10-29T11:50:47.051Z,20.63
2022-10-29T11:53:42.135Z,20.80
2022-10-29T11:56:20.499Z,21.23
2022-10-29T11:58:55.735Z,20.91
2022-10-29T12:01:32.200Z,21.07
2022-10-29T12:04:12.480Z,21.09
2022-10-29T12:06:54.790Z,21.33
2022-10-29T12:09:46.429Z,21.31
2022-10-29T12:12:21.479Z,21.25
2022-10-29T12:14:52.811Z,21.29
2022-10-29T12:17:24.195Z,21.30
2022-10-29T12:19:58.264Z,21.13
2022-10-29T12:22:38.523Z,21.14
2022-10-29T12:25:21.387Z,21.23
2022-10-29T12:28:01.962Z,21.18
2022-10-29T12:30:35.113Z,21.19
2022-10-29T12:33:13.395Z,21.28
2022-10-29T12:35:46.975Z,21.10
2022-10-29T12:38:29.021Z,21.00
2022-10-29T12:41:03.089Z,21.00
2022-10-29T12:43:34.577Z,21.05
2022-10-29T12:46:21.279Z,20.92
2022-10-29T12:48:59.238Z,20.99
2022-10-29T12:51:37.798Z,20.89
2022-10-29T12:54:23.143Z,21.02
2022-10-29T12:56:51.219Z,20.92
2022-10-29T12:59:30.443Z,21.07
2022-10-29T13:02:19.656Z,20.87
2022-10-29T13:05:33.449Z,21.03
2022-10-29T13:08:27.683Z,21.02
2022-10-29T13:10:57.542Z,21.08
2022-10-29T13:13:49.993Z,20.93
2022-10-29T13:16:21.538Z,21.09
2022-10-29T13:19:03.049Z,21.00
2022-10-29T13:21:59.765Z,21.15
2022-10-29T13:24:28.934Z,20.98
2022-10-29T13:27:02.517Z,20.95
2022-10-29T13:29:48.909Z,21.11
2022-10-29T13:32:33.793Z,21.01
2022-10-29T13:35:05.270Z,21.02
2022-10-29T13:37:54.400Z,21.15
2022-10-29T13:40:58.962Z,21.16
2022-10-29T13:43:28.037Z,21.05
2022-10-29T13:46:48.147Z,21.13
2022-10-29T13:49:23.197Z,21.19
2022-10-29T13:51:56.985Z,21.13
2022-10-29T13:54:31.921Z,21.09
2022-10-29T13:57:01.770Z,21.19
2022-10-29T13:59:37.395Z,21.19
2022-10-29T14:02:23.411Z,21.14
2022-10-29T14:04:57.646Z,21.21
2022-10-29T14:07:34.806Z,21.03
2022-10-29T14:10:09.432Z,21.10
2022-10-29T14:12:39.426Z,21.06
2022-10-29T14:15:10.385Z,21.14
2022-10-29T14:17:39.794Z,20.97
2022-10-29T14:20:22.090Z,21.03
2022-10-29T14:22:51.447Z,21.00
2022-10-29T14:25:35.721Z,21.03
2022-10-29T14:28:22.247Z,20.98
2022-10-29T14:31:01.287Z,21.08
2022-10-29T14:33:31.311Z,21.11
2022-10-29T14:36:06.605Z,21.10
2022-10-29T14:38:43.353Z,21.06
2022-10-29T14:41:11.943Z,21.10
2022-10-29T14:43:40.588Z,20.97
2022-10-29T14:46:15.491Z,20.91
2022-10-29T14:48:54.719Z,20.81
2022-10-29T14:51:23.424Z,20.78
2022-10-29T14:53:59.726Z,20.75
2022-10-29T14:56:34.250Z,20.74
2022-10-29T14:59:08.448Z,20.71
2022-10-29T15:01:46.585Z,20.70
2022-10-29T15:04:20.577Z,20.66
2022-10-29T15:06:48.466Z,20.60
2022-10-29T15:09:26.821Z,20.59
2022-10-29T15:12:03.046Z,20.55
2022-10-29T15:14:46.664Z,20.65
2022-10-29T15:17:21.208Z,20.48
2022-10-29T15:19:52.506Z,20.42
2022-10-29T15:22:25.750Z,20.33
2022-10-29T15:24:56.804Z,20.25
2022-10-29T15:27:24.851Z,20.22
2022-10-29T15:29:54.377Z,20.16
2022-10-29T15:32:24.135Z,20.15
2022-10-29T15:34:56.553Z,20.11
2022-10-29T15:37:27.167Z,20.04
2022-10-29T15:40:07.028Z,19.99
2022-10-29T15:42:37.539Z,19.90
2022-10-29T15:45:19.406Z,19.96
2022-10-29T15:47:49.223Z,19.80
2022-10-29T15:50:18.924Z,19.75
2022-10-29T15:52:52.272Z,19.66
2022-10-29T15:55:27.078Z,19.59
2022-10-29T15:58:00.492Z,19.51
2022-10-29T16:00:28.647Z,19.50
2022-10-29T16:03:00.971Z,19.45
2022-10-29T16:05:28.692Z,19.37
2022-10-29T16:07:57.519Z,19.29
2022-10-29T16:10:26.565Z,19.25
2022-10-29T16:12:54.775Z,19.22
2022-10-29T16:15:23.023Z,19.14
2022-10-29T16:17:50.772Z,19.14
2022-10-29T16:20:20.502Z,19.10
2022-10-29T16:22:50.124Z,19.07
2022-10-29T16:25:22.860Z,18.98
2022-10-29T16:27:52.267Z,18.95
2022-10-29T16:30:21.123Z,18.94
2022-10-29T16:32:50.864Z,18.95
2022-10-29T16:35:21.511Z,18.94
2022-10-29T16:37:50.119Z,18.92
2022-10-29T16:40:18.934Z,18.90
2022-10-29T16:42:47.025Z,18.87
2022-10-29T16:45:18.720Z,18.85
2022-10-29T16:47:46.977Z,18.84
2022-10-29T16:50:17.721Z,18.82
2022-10-29T16:52:45.515Z,18.80
2022-10-29T16:55:14.090Z,18.77
2022-10-29T16:57:42.061Z,18.74
2022-10-29T17:00:10.695Z,18.67
2022-10-29T17:02:40.535Z,18.70
2022-10-29T17:05:08.855Z,18.64
2022-10-29T17:07:36.542Z,18.57
2022-10-29T17:10:04.736Z,18.59
2022-10-29T17:12:32.616Z,18.55
2022-10-29T17:15:00.357Z,18.54
2022-10-29T17:17:31.019Z,18.54
2022-10-29T17:20:00.470Z,18.48
2022-10-29T17:22:28.234Z,18.44
2022-10-29T17:24:55.950Z,18.40
2022-10-29T17:27:23.725Z,18.36
2022-10-29T17:29:51.426Z,18.34
2022-10-29T17:32:19.146Z,18.27
2022-10-29T17:34:46.878Z,18.24
2022-10-29T17:37:15.975Z,18.20
2022-10-29T17:39:43.759Z,18.21
2022-10-29T17:42:11.437Z,18.20
2022-10-29T17:44:39.116Z,18.19
2022-10-29T17:47:06.840Z,18.17
2022-10-29T17:49:34.854Z,18.16
2022-10-29T17:52:02.536Z,18.17
2022-10-29T17:54:33.984Z,18.11
2022-10-29T17:57:02.991Z,18.11
2022-10-29T17:59:30.740Z,18.05
2022-10-29T18:01:58.751Z,18.07
2022-10-29T18:04:26.780Z,18.05
2022-10-29T18:06:56.843Z,18.08
2022-10-29T18:09:24.508Z,18.05
2022-10-29T18:11:53.855Z,18.03
2022-10-29T18:14:21.647Z,18.00
2022-10-29T18:16:50.313Z,18.01
2022-10-29T18:19:18.263Z,17.98
2022-10-29T18:21:46.471Z,17.97
2022-10-29T18:24:14.248Z,18.01
2022-10-29T18:26:41.934Z,18.01
2022-10-29T18:29:13.191Z,18.00
2022-10-29T18:31:44.738Z,18.01
2022-10-29T18:34:14.977Z,17.99
2022-10-29T18:36:43.121Z,18.00
2022-10-29T18:39:10.852Z,17.94
2022-10-29T18:41:39.448Z,17.91
2022-10-29T18:44:07.468Z,17.90
2022-10-29T18:46:36.503Z,17.88
2022-10-29T18:49:04.956Z,17.84
2022-10-29T18:51:33.729Z,17.81
2022-10-29T18:54:01.634Z,17.85
2022-10-29T18:56:30.961Z,17.82
2022-10-29T18:59:00.271Z,17.78
2022-10-29T19:01:31.324Z,17.82
2022-10-29T19:04:03.641Z,17.77
2022-10-29T19:06:33.222Z,17.79
2022-10-29T19:09:02.449Z,17.76
2022-10-29T19:11:30.307Z,17.72
2022-10-29T19:13:59.620Z,17.69
2022-10-29T19:16:28.540Z,17.67
2022-10-29T19:18:57.801Z,17.65
2022-10-29T19:21:27.662Z,17.65
2022-10-29T19:23:56.605Z,17.61
2022-10-29T19:26:25.723Z,17.56
2022-10-29T19:28:53.881Z,17.54
2022-10-29T19:31:23.635Z,17.49
2022-10-29T19:33:52.841Z,17.51
2022-10-29T19:36:21.039Z,17.51
2022-10-29T19:38:50.481Z,17.47
2022-10-29T19:41:18.950Z,17.46
2022-10-29T19:43:47.656Z,17.43
2022-10-29T19:46:17.295Z,17.41
2022-10-29T19:48:49.875Z,17.40
2022-10-29T19:51:17.696Z,17.42
2022-10-29T19:53:45.679Z,17.37
2022-10-29T19:56:17.019Z,17.33
2022-10-29T19:58:45.438Z,17.32
2022-10-29T20:01:15.960Z,17.30
2022-10-29T20:03:44.182Z,17.28
2022-10-29T20:06:12.643Z,17.28
2022-10-29T20:08:40.443Z,17.30
2022-10-29T20:11:08.551Z,17.27
2022-10-29T20:13:37.881Z,17.25
2022-10-29T20:16:10.226Z,17.25
2022-10-29T20:18:38.161Z,17.26
2022-10-29T20:23:39.254Z,17.17
2022-10-29T20:26:07.867Z,17.17
2022-10-29T20:28:37.508Z,17.11
2022-10-29T20:31:24.458Z,17.14
2022-10-29T20:33:53.515Z,17.09
2022-10-29T20:36:21.815Z,17.04
2022-10-29T20:38:50.322Z,17.06
2022-10-29T20:41:18.705Z,17.08
2022-10-29T20:43:52.804Z,17.03
2022-10-29T20:46:20.926Z,17.06
2022-10-29T20:48:48.668Z,17.11
2022-10-29T20:51:17.129Z,17.11
2022-10-29T20:53:45.284Z,17.08
2022-10-29T20:56:16.196Z,17.09
2022-10-29T20:58:44.639Z,17.05
2022-10-29T21:01:16.122Z,17.02
2022-10-29T21:03:44.584Z,17.05
2022-10-29T21:06:17.193Z,17.06
2022-10-29T21:08:45.390Z,17.04
2022-10-29T21:11:14.968Z,17.05
2022-10-29T21:13:42.880Z,17.02
2022-10-29T21:16:17.220Z,17.01
2022-10-29T21:18:46.547Z,16.96
2022-10-29T21:21:14.633Z,16.94
2022-10-29T21:23:42.483Z,16.94
2022-10-29T21:26:12.956Z,16.92
2022-10-29T21:28:40.687Z,16.92
2022-10-29T21:31:08.732Z,16.90
2022-10-29T21:33:37.919Z,16.83
2022-10-29T21:36:06.128Z,16.82
2022-10-29T21:38:34.255Z,16.81
2022-10-29T21:41:03.037Z,16.79
2022-10-29T21:43:30.847Z,16.72
2022-10-29T21:45:58.849Z,16.66
2022-10-29T21:48:27.384Z,16.56
2022-10-29T21:51:02.288Z,16.60
2022-10-29T21:53:30.453Z,16.63
2022-10-29T21:55:58.454Z,16.73
2022-10-29T21:58:26.736Z,16.79
2022-10-29T22:01:03.416Z,16.73
2022-10-29T22:03:31.642Z,16.78
2022-10-29T22:06:04.593Z,16.81
2022-10-29T22:08:32.531Z,16.84
2022-10-29T22:11:00.761Z,16.85
2022-10-29T22:13:29.083Z,16.86
2022-10-29T22:15:57.090Z,16.87
2022-10-29T22:18:25.977Z,16.84
2022-10-29T22:21:05.280Z,16.89
2022-10-29T22:23:33.310Z,16.90
2022-10-29T22:26:01.349Z,16.90
2022-10-29T22:28:29.197Z,16.89
2022-10-29T22:31:01.185Z,16.90
2022-10-29T22:33:29.364Z,16.94
2022-10-29T22:35:57.268Z,16.91
2022-10-29T22:38:26.317Z,16.80
2022-10-29T22:40:54.161Z,16.84
2022-10-29T22:43:21.874Z,16.83
2022-10-29T22:45:49.594Z,16.76
2022-10-29T22:48:17.254Z,16.69
2022-10-29T22:50:44.982Z,16.67
2022-10-29T22:53:12.718Z,16.63
2022-10-29T22:55:41.830Z,16.63
2022-10-29T22:58:09.716Z,16.56
2022-10-29T23:00:37.394Z,16.56
2022-10-29T23:03:05.440Z,16.57
2022-10-29T23:05:33.299Z,16.53
2022-10-29T23:08:01.261Z,16.53
2022-10-29T23:10:29.008Z,16.55
2022-10-29T23:12:58.046Z,16.49
2022-10-29T23:15:25.780Z,16.45
2022-10-29T23:17:54.410Z,16.48
2022-10-29T23:20:22.258Z,16.51
2022-10-29T23:22:49.964Z,16.47
2022-10-29T23:25:17.919Z,16.43
2022-10-29T23:27:45.700Z,16.44
2022-10-29T23:30:15.356Z,16.46
2022-10-29T23:32:43.187Z,16.49
2022-10-29T23:35:10.846Z,16.44
2022-10-29T23:37:38.551Z,16.42
2022-10-29T23:40:07.363Z,16.38
2022-10-29T23:42:35.113Z,16.38
2022-10-29T23:45:06.871Z,16.38
2022-10-29T23:47:36.911Z,16.40
2022-10-29T23:50:04.980Z,16.30
2022-10-29T23:52:32.706Z,16.25
2022-10-29T23:55:00.682Z,16.25
2022-10-29T23:57:28.398Z,16.26
2022-10-29T23:59:56.179Z,16.31
